createdAt,value
2023-05-19T00:00:10.626Z,23.73
2023-05-19T00:02:44.148Z,25.02
2023-05-19T00:05:15.209Z,19.85
2023-05-19T00:07:45.028Z,23.45
2023-05-19T00:10:16.503Z,20.08
2023-05-19T00:12:45.785Z,23.88
2023-05-19T00:15:15.184Z,21.90
2023-05-19T00:17:43.581Z,24.80
2023-05-19T00:20:13.160Z,19.30
2023-05-19T00:22:44.142Z,26.15
2023-05-19T00:25:12.485Z,26.00
2023-05-19T00:27:42.182Z,24.17
2023-05-19T00:30:11.077Z,21.25
2023-05-19T00:32:39.470Z,18.80
2023-05-19T00:35:08.821Z,25.95
2023-05-19T00:37:37.229Z,19.75
2023-05-19T00:40:06.786Z,20.92
2023-05-19T00:42:35.377Z,23.02
2023-05-19T00:45:05.698Z,21.02
2023-05-19T00:47:34.264Z,22.30
2023-05-19T00:50:02.624Z,21.10
2023-05-19T00:52:30.986Z,19.13
2023-05-19T00:54:59.429Z,16.88
2023-05-19T00:57:28.180Z,18.23
2023-05-19T00:59:56.775Z,19.10
2023-05-19T01:02:26.740Z,19.30
2023-05-19T01:04:56.333Z,25.00
2023-05-19T01:07:25.480Z,20.40
2023-05-19T01:09:53.885Z,19.90
2023-05-19T01:12:22.239Z,31.90
2023-05-19T01:14:50.675Z,22.80
2023-05-19T01:17:27.700Z,20.42
2023-05-19T01:20:06.658Z,18.60
2023-05-19T01:23:06.363Z,22.65
2023-05-19T01:26:03.868Z,22.38
2023-05-19T01:29:23.360Z,16.05
2023-05-19T01:31:56.686Z,21.30
2023-05-19T01:34:27.448Z,20.67
2023-05-19T01:36:56.985Z,22.13
2023-05-19T01:39:26.264Z,19.83
2023-05-19T01:41:56.118Z,19.80
2023-05-19T01:44:25.627Z,20.33
2023-05-19T01:46:56.318Z,20.58
2023-05-19T01:49:25.266Z,17.85
2023-05-19T01:51:54.256Z,16.35
2023-05-19T01:54:23.929Z,21.75
2023-05-19T01:57:01.413Z,21.08
2023-05-19T01:59:43.111Z,22.20
2023-05-19T02:02:22.297Z,25.67
2023-05-19T02:04:58.673Z,26.88
2023-05-19T02:07:33.146Z,22.45
2023-05-19T02:10:07.597Z,22.73
2023-05-19T02:12:38.120Z,21.45
2023-05-19T02:15:08.934Z,17.58
2023-05-19T02:17:42.632Z,18.38
2023-05-19T02:20:12.289Z,19.13
2023-05-19T02:22:41.092Z,19.67
2023-05-19T02:25:10.152Z,20.33
2023-05-19T02:27:39.636Z,20.42
2023-05-19T02:30:09.968Z,26.10
2023-05-19T02:32:40.150Z,25.80
2023-05-19T02:35:09.168Z,19.80
2023-05-19T02:37:37.554Z,21.55
2023-05-19T02:40:07.020Z,20.90
2023-05-19T02:42:35.441Z,22.40
2023-05-19T02:45:03.948Z,17.65
2023-05-19T02:47:33.187Z,21.48
2023-05-19T02:50:03.871Z,19.45
2023-05-19T02:52:32.233Z,21.75
2023-05-19T02:55:00.637Z,23.05
2023-05-19T02:57:31.708Z,24.65
2023-05-19T03:00:00.313Z,18.77
2023-05-19T03:02:28.836Z,25.70
2023-05-19T03:04:58.001Z,21.17
2023-05-19T03:07:27.929Z,21.27
2023-05-19T03:09:56.361Z,23.40
2023-05-19T03:12:24.711Z,17.47
2023-05-19T03:14:53.153Z,18.03
2023-05-19T03:17:21.616Z,21.67
2023-05-19T03:19:51.197Z,24.87
2023-05-19T03:22:21.050Z,19.73
2023-05-19T03:24:54.442Z,22.43
2023-05-19T03:27:22.944Z,18.57
2023-05-19T03:29:52.969Z,18.90
2023-05-19T03:32:21.508Z,19.57
2023-05-19T03:34:50.051Z,20.93
2023-05-19T03:37:18.629Z,20.23
2023-05-19T03:39:46.920Z,22.80
2023-05-19T03:42:17.251Z,21.80
2023-05-19T03:44:45.924Z,18.63
2023-05-19T03:47:14.645Z,24.13
2023-05-19T03:50:10.119Z,24.73
2023-05-19T03:52:53.746Z,25.17
2023-05-19T03:55:33.939Z,22.63
2023-05-19T03:58:03.371Z,20.63
2023-05-19T04:00:31.984Z,26.40
2023-05-19T04:03:01.023Z,22.37
2023-05-19T04:05:29.150Z,21.13
2023-05-19T04:07:57.179Z,17.77
2023-05-19T04:10:25.266Z,21.07
2023-05-19T04:12:55.639Z,22.37
2023-05-19T04:15:25.159Z,21.33
2023-05-19T04:17:53.222Z,21.43
2023-05-19T04:20:21.441Z,25.73
2023-05-19T04:22:49.509Z,24.83
2023-05-19T04:25:19.983Z,23.23
2023-05-19T04:27:48.296Z,17.93
2023-05-19T04:30:22.221Z,19.17
2023-05-19T04:32:52.114Z,24.47
2023-05-19T04:35:20.479Z,21.93
2023-05-19T04:37:49.552Z,23.83
2023-05-19T04:40:21.173Z,24.40
2023-05-19T04:42:49.831Z,20.70
2023-05-19T04:45:18.021Z,24.47
2023-05-19T04:47:49.661Z,21.67
2023-05-19T04:50:19.259Z,20.03
2023-05-19T04:52:47.358Z,26.67
2023-05-19T04:55:16.110Z,21.77
2023-05-19T04:57:44.904Z,22.10
2023-05-19T05:00:14.530Z,23.50
2023-05-19T05:02:57.654Z,23.17
2023-05-19T05:05:29.018Z,25.73
2023-05-19T05:07:57.461Z,21.50
2023-05-19T05:10:28.276Z,25.57
2023-05-19T05:12:57.001Z,24.87
2023-05-19T05:15:28.609Z,24.20
2023-05-19T05:17:58.101Z,29.80
2023-05-19T05:20:28.887Z,21.63
2023-05-19T05:22:58.799Z,23.17
2023-05-19T05:25:28.338Z,28.23
2023-05-19T05:27:56.389Z,24.10
2023-05-19T05:30:24.933Z,22.57
2023-05-19T05:32:54.228Z,23.92
2023-05-19T05:35:33.848Z,26.92
2023-05-19T05:38:02.782Z,22.70
2023-05-19T05:40:31.246Z,19.30
2023-05-19T05:43:00.008Z,23.85
2023-05-19T05:45:31.630Z,21.67
2023-05-19T05:48:02.377Z,18.05
2023-05-19T05:50:34.168Z,18.40
2023-05-19T05:53:04.755Z,16.98
2023-05-19T05:55:34.773Z,19.05
2023-05-19T05:58:03.651Z,16.42
2023-05-19T06:00:33.484Z,21.17
2023-05-19T06:03:03.140Z,22.15
2023-05-19T06:05:33.588Z,16.20
2023-05-19T06:08:01.687Z,17.90
2023-05-19T06:10:30.034Z,16.85
2023-05-19T06:12:58.261Z,15.80
2023-05-19T06:15:27.331Z,13.48
2023-05-19T06:18:10.056Z,17.92
2023-05-19T06:20:39.525Z,19.50
2023-05-19T06:23:07.872Z,15.30
2023-05-19T06:25:37.095Z,18.77
2023-05-19T06:28:06.527Z,13.18
2023-05-19T06:30:34.939Z,17.15
2023-05-19T06:33:13.708Z,15.90
2023-05-19T06:35:43.746Z,17.52
2023-05-19T06:38:11.915Z,16.08
2023-05-19T06:40:40.030Z,11.25
2023-05-19T06:43:08.107Z,15.90
2023-05-19T06:45:54.399Z,13.70
2023-05-19T06:48:23.713Z,14.60
2023-05-19T06:50:53.229Z,9.68
2023-05-19T06:53:21.850Z,13.73
2023-05-19T06:55:58.721Z,16.65
2023-05-19T06:58:30.104Z,13.13
2023-05-19T07:00:59.764Z,14.48
2023-05-19T07:03:32.651Z,13.85
2023-05-19T07:06:02.493Z,16.33
2023-05-19T07:08:30.622Z,11.25
2023-05-19T07:11:01.723Z,12.43
2023-05-19T07:13:30.188Z,14.23
2023-05-19T07:15:58.699Z,11.68
2023-05-19T07:18:31.836Z,11.48
2023-05-19T07:21:00.247Z,14.75
2023-05-19T07:23:29.879Z,12.50
2023-05-19T07:25:58.006Z,12.25
2023-05-19T07:28:26.102Z,14.57
2023-05-19T07:30:54.225Z,11.32
2023-05-19T07:33:22.289Z,10.65
2023-05-19T07:35:50.426Z,12.38
2023-05-19T07:38:18.508Z,11.25
2023-05-19T07:40:47.956Z,10.93
2023-05-19T07:43:16.034Z,10.68
2023-05-19T07:45:44.125Z,11.57
2023-05-19T07:48:12.249Z,12.88
2023-05-19T07:50:40.426Z,18.30
2023-05-19T07:53:08.524Z,12.38
2023-05-19T07:55:36.558Z,9.77
2023-05-19T07:58:06.055Z,9.50
2023-05-19T08:00:34.312Z,7.47
2023-05-19T08:03:03.174Z,7.40
2023-05-19T08:05:31.344Z,9.10
2023-05-19T08:07:59.378Z,8.73
2023-05-19T08:10:27.414Z,10.85
2023-05-19T08:12:55.512Z,12.00
2023-05-19T08:15:25.480Z,10.50
2023-05-19T08:17:53.552Z,12.55
2023-05-19T08:20:22.808Z,9.13
2023-05-19T08:22:51.156Z,10.48
2023-05-19T08:25:19.877Z,11.68
2023-05-19T08:27:47.976Z,10.80
2023-05-19T08:30:16.264Z,10.30
2023-05-19T08:32:45.735Z,9.77
2023-05-19T08:35:13.835Z,14.13
2023-05-19T08:37:42.250Z,11.80
2023-05-19T08:40:17.028Z,9.27
2023-05-19T08:42:45.422Z,7.93
2023-05-19T08:45:13.656Z,11.52
2023-05-19T08:47:43.185Z,11.82
2023-05-19T08:50:14.259Z,7.53
2023-05-19T08:52:52.997Z,12.55
2023-05-19T08:55:31.166Z,12.27
2023-05-19T08:57:59.987Z,13.73
2023-05-19T09:00:29.588Z,9.65
2023-05-19T09:03:05.906Z,12.27
2023-05-19T09:05:41.370Z,10.95
2023-05-19T09:08:10.789Z,10.75
2023-05-19T09:10:38.848Z,8.88
2023-05-19T09:13:07.371Z,10.45
2023-05-19T09:15:37.051Z,12.07
2023-05-19T09:18:08.988Z,14.25
2023-05-19T09:20:43.401Z,12.57
2023-05-19T09:23:16.110Z,12.18
2023-05-19T09:25:54.483Z,12.95
2023-05-19T09:28:26.742Z,12.60
2023-05-19T09:31:02.415Z,14.35
2023-05-19T09:33:31.143Z,13.45
2023-05-19T09:36:00.721Z,13.35
2023-05-19T09:38:29.616Z,11.68
2023-05-19T09:40:58.893Z,12.60
2023-05-19T09:43:29.068Z,13.18
2023-05-19T09:46:01.569Z,17.75
2023-05-19T09:48:30.466Z,10.20
2023-05-19T09:51:01.422Z,13.98
2023-05-19T09:53:31.300Z,12.85
2023-05-19T09:55:59.913Z,11.02
2023-05-19T09:58:28.231Z,10.60
2023-05-19T10:01:17.332Z,12.13
2023-05-19T10:03:50.538Z,12.30
2023-05-19T10:06:48.457Z,10.10
2023-05-19T10:09:18.238Z,11.48
2023-05-19T10:11:47.280Z,9.65
2023-05-19T10:14:16.628Z,12.27
2023-05-19T10:16:50.530Z,9.23
2023-05-19T10:19:21.616Z,11.20
2023-05-19T10:21:55.230Z,10.65
2023-05-19T10:24:25.675Z,11.98
2023-05-19T10:26:59.617Z,15.32
2023-05-19T10:29:30.680Z,10.05
2023-05-19T10:32:07.374Z,13.95
2023-05-19T10:34:59.272Z,14.63
2023-05-19T10:37:38.832Z,10.70
2023-05-19T10:40:11.621Z,12.02
2023-05-19T10:42:51.195Z,12.32
2023-05-19T10:45:23.601Z,13.30
2023-05-19T10:47:52.521Z,13.98
2023-05-19T10:50:21.891Z,10.95
2023-05-19T10:52:59.877Z,15.07
2023-05-19T10:55:46.025Z,11.82
2023-05-19T10:58:14.219Z,11.52
2023-05-19T11:00:42.658Z,13.32
2023-05-19T11:03:16.286Z,12.43
2023-05-19T11:05:45.398Z,11.70
2023-05-19T11:08:14.991Z,11.30
2023-05-19T11:10:46.154Z,8.32
2023-05-19T11:13:23.175Z,13.15
2023-05-19T11:15:51.385Z,9.07
2023-05-19T11:18:20.702Z,9.65
2023-05-19T11:20:58.066Z,12.00
2023-05-19T11:23:27.726Z,12.00
2023-05-19T11:25:55.869Z,14.98
2023-05-19T11:28:28.068Z,10.48
2023-05-19T11:30:57.726Z,11.43
2023-05-19T11:33:27.887Z,15.25
2023-05-19T11:35:58.146Z,13.25
2023-05-19T11:38:30.251Z,15.55
2023-05-19T11:40:58.652Z,13.65
2023-05-19T11:43:27.103Z,15.95
2023-05-19T11:45:56.232Z,9.90
2023-05-19T11:48:25.863Z,16.02
2023-05-19T11:50:54.248Z,13.25
2023-05-19T11:53:22.511Z,13.10
2023-05-19T11:55:52.342Z,14.23
2023-05-19T11:58:27.842Z,9.63
2023-05-19T12:00:56.638Z,12.75
2023-05-19T12:03:28.101Z,12.27
2023-05-19T12:05:56.657Z,12.40
2023-05-19T12:08:25.670Z,15.18
2023-05-19T12:10:56.239Z,11.45
2023-05-19T12:13:24.531Z,9.50
2023-05-19T12:15:53.471Z,12.60
2023-05-19T12:18:21.709Z,12.93
2023-05-19T12:20:50.005Z,12.63
2023-05-19T12:23:18.375Z,11.65
2023-05-19T12:25:46.560Z,11.88
2023-05-19T12:28:17.678Z,13.68
2023-05-19T12:30:50.322Z,13.57
2023-05-19T12:33:18.879Z,12.85
2023-05-19T12:35:47.766Z,12.13
2023-05-19T12:38:16.428Z,12.80
2023-05-19T12:40:46.353Z,12.43
2023-05-19T12:43:22.485Z,12.57
2023-05-19T12:45:50.727Z,11.43
2023-05-19T12:48:23.827Z,17.45
2023-05-19T12:50:54.323Z,14.30
2023-05-19T12:53:22.467Z,14.75
2023-05-19T12:55:53.943Z,13.65
2023-05-19T12:58:24.224Z,9.68
2023-05-19T13:00:52.830Z,12.90
2023-05-19T13:03:22.208Z,9.80
2023-05-19T13:05:52.089Z,11.32
2023-05-19T13:08:21.604Z,13.75
2023-05-19T13:10:50.227Z,11.55
2023-05-19T13:13:18.695Z,13.40
2023-05-19T13:15:49.622Z,11.20
2023-05-19T13:18:18.243Z,12.25
2023-05-19T13:20:49.158Z,9.15
2023-05-19T13:23:18.670Z,13.38
2023-05-19T13:25:47.003Z,12.38
2023-05-19T13:28:15.158Z,12.75
2023-05-19T13:30:44.977Z,12.82
2023-05-19T13:33:14.530Z,13.93
2023-05-19T13:35:42.609Z,11.80
2023-05-19T13:38:11.419Z,12.30
2023-05-19T13:40:39.691Z,13.27
2023-05-19T13:43:08.798Z,12.75
2023-05-19T13:45:37.129Z,12.95
2023-05-19T13:48:07.287Z,12.93
2023-05-19T13:50:36.989Z,10.50
2023-05-19T13:53:05.224Z,13.55
2023-05-19T13:55:33.826Z,11.77
2023-05-19T13:58:02.430Z,11.88
2023-05-19T14:00:31.673Z,12.32
2023-05-19T14:03:00.448Z,11.90
2023-05-19T14:05:29.113Z,11.07
2023-05-19T14:08:00.533Z,9.60
2023-05-19T14:10:28.640Z,11.05
2023-05-19T14:15:38.218Z,11.75
2023-05-19T14:18:07.102Z,11.82
2023-05-19T14:20:36.046Z,15.10
2023-05-19T14:23:05.879Z,12.98
2023-05-19T14:25:33.978Z,13.77
2023-05-19T14:28:02.447Z,12.35
2023-05-19T14:30:30.576Z,12.18
2023-05-19T14:32:58.693Z,11.18
2023-05-19T14:35:27.360Z,11.68
2023-05-19T14:37:55.448Z,13.98
2023-05-19T14:40:24.883Z,12.15
2023-05-19T14:42:52.964Z,20.17
2023-05-19T14:45:21.119Z,10.10
2023-05-19T14:47:49.181Z,11.10
2023-05-19T14:50:17.384Z,12.98
2023-05-19T14:52:45.480Z,13.15
2023-05-19T14:55:13.556Z,16.63
2023-05-19T14:57:42.989Z,16.38
2023-05-19T15:00:12.169Z,15.48
2023-05-19T15:02:40.226Z,14.77
2023-05-19T15:05:08.942Z,11.73
2023-05-19T15:07:37.266Z,11.75
2023-05-19T15:10:06.024Z,13.02
2023-05-19T15:12:34.091Z,10.75
2023-05-19T15:15:03.949Z,11.07
2023-05-19T15:17:32.083Z,10.50
2023-05-19T15:20:00.254Z,12.50
2023-05-19T15:22:28.323Z,10.73
2023-05-19T15:24:56.436Z,14.98
2023-05-19T15:27:24.616Z,11.90
2023-05-19T15:29:52.698Z,15.82
2023-05-19T15:32:22.133Z,12.15
2023-05-19T15:34:50.292Z,10.07
2023-05-19T15:37:18.369Z,9.98
2023-05-19T15:39:46.468Z,15.52
2023-05-19T15:42:14.529Z,13.38
2023-05-19T15:44:42.712Z,12.88
2023-05-19T15:47:10.781Z,14.32
2023-05-19T15:49:40.248Z,11.23
2023-05-19T15:52:08.472Z,11.20
2023-05-19T15:54:36.529Z,13.73
2023-05-19T15:57:04.787Z,12.15
2023-05-19T15:59:32.874Z,13.10
2023-05-19T16:02:01.135Z,8.57
2023-05-19T16:04:29.285Z,16.73
2023-05-19T16:06:58.913Z,14.00
2023-05-19T16:09:27.024Z,11.68
2023-05-19T16:11:55.032Z,14.95
2023-05-19T16:14:23.218Z,14.55
2023-05-19T16:16:51.438Z,10.77
2023-05-19T16:19:19.647Z,16.80
2023-05-19T16:21:47.773Z,10.32
2023-05-19T16:24:17.178Z,12.52
2023-05-19T16:26:45.413Z,11.40
2023-05-19T16:29:13.430Z,11.73
2023-05-19T16:31:41.520Z,13.23
2023-05-19T16:34:09.705Z,14.63
2023-05-19T16:36:37.722Z,12.55
2023-05-19T16:39:05.934Z,13.55
2023-05-19T16:41:35.459Z,15.95
2023-05-19T16:44:03.521Z,12.93
2023-05-19T16:46:31.845Z,13.25
2023-05-19T16:48:59.991Z,15.70
2023-05-19T16:51:28.040Z,14.88
2023-05-19T16:53:56.114Z,14.35
2023-05-19T16:56:24.187Z,12.48
2023-05-19T16:58:54.673Z,14.65
2023-05-19T17:01:22.808Z,12.38
2023-05-19T17:03:50.998Z,10.63
2023-05-19T17:06:19.085Z,16.00
2023-05-19T17:08:47.109Z,14.35
2023-05-19T17:11:15.166Z,13.70
2023-05-19T17:13:43.869Z,10.35
2023-05-19T17:16:13.288Z,12.00
2023-05-19T17:18:41.474Z,13.77
2023-05-19T17:21:09.540Z,13.45
2023-05-19T17:23:38.237Z,13.95
2023-05-19T17:26:06.474Z,14.40
2023-05-19T17:28:34.512Z,16.48
2023-05-19T17:31:03.235Z,11.27
2023-05-19T17:33:32.776Z,12.27
2023-05-19T17:36:04.482Z,13.43
2023-05-19T17:38:32.761Z,11.43
2023-05-19T17:41:01.319Z,12.15
2023-05-19T17:43:29.821Z,10.70
2023-05-19T17:45:58.886Z,14.93
2023-05-19T17:48:29.137Z,13.52
2023-05-19T17:50:58.804Z,12.85
2023-05-19T17:53:27.495Z,13.07
2023-05-19T17:56:00.505Z,12.18
2023-05-19T17:58:29.591Z,12.75
2023-05-19T18:00:58.251Z,11.18
2023-05-19T18:03:27.025Z,14.65
2023-05-19T18:05:55.860Z,10.88
2023-05-19T18:08:25.970Z,13.15
2023-05-19T18:10:56.048Z,10.63
2023-05-19T18:13:24.128Z,15.10
2023-05-19T18:15:52.830Z,10.63
2023-05-19T18:18:21.059Z,11.70
2023-05-19T18:20:49.230Z,13.60
2023-05-19T18:23:17.357Z,13.00
2023-05-19T18:25:53.310Z,11.95
2023-05-19T18:28:21.451Z,9.68
2023-05-19T18:30:59.058Z,13.38
2023-05-19T18:33:28.732Z,14.13
2023-05-19T18:35:59.128Z,13.80
2023-05-19T18:38:27.316Z,11.57
2023-05-19T18:40:57.733Z,14.30
2023-05-19T18:43:25.938Z,10.65
2023-05-19T18:45:54.041Z,7.32
2023-05-19T18:48:22.625Z,11.60
2023-05-19T18:50:50.913Z,13.30
2023-05-19T18:53:18.930Z,13.50
2023-05-19T18:55:46.992Z,14.15
2023-05-19T18:58:16.386Z,10.98
2023-05-19T19:00:44.435Z,11.07
2023-05-19T19:03:12.846Z,12.68
2023-05-19T19:05:41.019Z,11.93
2023-05-19T19:08:09.048Z,11.48
2023-05-19T19:10:40.308Z,12.70
2023-05-19T19:13:08.414Z,11.65
2023-05-19T19:15:39.689Z,14.65
2023-05-19T19:18:08.279Z,18.48
2023-05-19T19:20:36.542Z,16.02
2023-05-19T19:23:06.666Z,15.63
2023-05-19T19:25:35.135Z,14.60
2023-05-19T19:28:03.625Z,13.68
2023-05-19T19:30:32.019Z,13.95
2023-05-19T19:33:02.404Z,14.93
2023-05-19T19:35:31.199Z,16.70
2023-05-19T19:37:59.536Z,14.65
2023-05-19T19:40:27.572Z,15.02
2023-05-19T19:42:55.626Z,16.33
2023-05-19T19:45:23.684Z,18.73
2023-05-19T19:47:52.035Z,15.93
2023-05-19T19:50:21.848Z,17.88
2023-05-19T19:52:49.919Z,19.27
2023-05-19T19:55:18.027Z,18.55
2023-05-19T19:57:49.242Z,22.95
2023-05-19T20:00:18.561Z,15.52
2023-05-19T20:05:21.268Z,18.25
2023-05-19T20:07:49.313Z,16.27
2023-05-19T20:10:17.544Z,17.30
2023-05-19T20:12:47.208Z,15.30
2023-05-19T20:15:15.976Z,15.90
2023-05-19T20:17:44.160Z,16.77
2023-05-19T20:20:13.411Z,14.57
2023-05-19T20:22:44.358Z,16.80
2023-05-19T20:25:12.388Z,16.58
2023-05-19T20:27:40.538Z,16.85
2023-05-19T20:30:09.640Z,18.80
2023-05-19T20:32:37.874Z,16.60
2023-05-19T20:35:06.804Z,15.75
2023-05-19T20:37:34.859Z,16.92
2023-05-19T20:40:04.616Z,18.73
2023-05-19T20:42:32.662Z,17.40
2023-05-19T20:45:01.427Z,19.35
2023-05-19T20:47:30.547Z,18.52
2023-05-19T20:49:58.930Z,18.58
2023-05-19T20:52:26.996Z,14.27
2023-05-19T20:54:55.066Z,16.42
2023-05-19T20:57:25.662Z,19.25
2023-05-19T20:59:55.360Z,16.00
2023-05-19T21:02:23.454Z,18.38
2023-05-19T21:04:51.590Z,17.85
2023-05-19T21:07:19.757Z,19.30
2023-05-19T21:09:50.318Z,19.27
2023-05-19T21:12:20.528Z,17.10
2023-05-19T21:14:51.410Z,20.48
2023-05-19T21:17:21.119Z,18.85
2023-05-19T21:19:50.682Z,18.92
2023-05-19T21:22:19.185Z,15.30
2023-05-19T21:24:47.532Z,17.70
2023-05-19T21:27:15.833Z,14.75
2023-05-19T21:29:44.082Z,15.43
2023-05-19T21:32:14.165Z,16.65
2023-05-19T21:34:42.337Z,17.63
2023-05-19T21:37:10.457Z,15.75
2023-05-19T21:39:38.650Z,18.95
2023-05-19T21:42:07.441Z,17.95
2023-05-19T21:44:35.573Z,19.33
2023-05-19T21:47:03.931Z,19.58
2023-05-19T21:49:33.389Z,23.73
2023-05-19T21:52:01.552Z,18.08
2023-05-19T21:54:29.589Z,20.10
2023-05-19T21:56:57.666Z,22.33
2023-05-19T21:59:26.358Z,17.33
2023-05-19T22:02:16.118Z,16.38
2023-05-19T22:04:45.725Z,18.73
2023-05-19T22:07:13.739Z,19.77
2023-05-19T22:09:41.814Z,17.65
2023-05-19T22:12:09.851Z,19.73
2023-05-19T22:14:38.023Z,18.15
2023-05-19T22:17:08.817Z,18.52
2023-05-19T22:19:36.888Z,16.25
2023-05-19T22:22:13.787Z,16.42
2023-05-19T22:24:42.614Z,15.02
2023-05-19T22:27:10.986Z,20.45
2023-05-19T22:29:39.440Z,16.13
2023-05-19T22:32:11.815Z,14.40
2023-05-19T22:34:40.171Z,17.80
2023-05-19T22:37:09.687Z,16.73
2023-05-19T22:39:38.190Z,18.70
2023-05-19T22:42:06.946Z,16.27
2023-05-19T22:44:34.982Z,15.48
2023-05-19T22:47:03.041Z,17.52
2023-05-19T22:49:31.136Z,18.48
2023-05-19T22:51:59.158Z,17.00
2023-05-19T22:54:28.614Z,15.75
2023-05-19T22:56:56.707Z,19.30
2023-05-19T22:59:24.917Z,16.17
2023-05-19T23:01:53.228Z,15.63
2023-05-19T23:04:21.807Z,16.27
2023-05-19T23:06:50.520Z,16.85
2023-05-19T23:09:18.632Z,14.85
2023-05-19T23:11:48.048Z,18.90
2023-05-19T23:14:16.118Z,15.43
2023-05-19T23:16:44.187Z,17.45
2023-05-19T23:19:12.329Z,15.30
2023-05-19T23:21:40.549Z,16.92
2023-05-19T23:24:08.757Z,18.27
2023-05-19T23:26:36.837Z,14.27
2023-05-19T23:29:06.284Z,17.30
2023-05-19T23:31:34.965Z,17.92
2023-05-19T23:34:04.456Z,17.17
2023-05-19T23:36:32.570Z,17.58
2023-05-19T23:39:01.399Z,16.60
2023-05-19T23:41:29.649Z,17.02
2023-05-19T23:43:57.752Z,16.50
2023-05-19T23:46:27.406Z,17.38
2023-05-19T23:48:55.537Z,15.07
2023-05-19T23:51:23.592Z,14.15
2023-05-19T23:53:51.632Z,16.70
2023-05-19T23:56:19.673Z,14.85
2023-05-19T23:58:47.699Z,20.52
